Brunswick Golden Isles Airport Brunswick US
ICAO: KBQK
IATA: BQK
Category: Medium
Scheduled Services: Yes

Elevation: 26 ft
TransAlt. 18000 ft.

Airport Communications:
AWOS 3:124.175
CLNC DEL:126.75
JACKSONVILLE CNTR:126.75
MACON RDO:122.2
CTAF/UNICOM:122.8

KBQK Zoom In..

If you have problems with the map follow the link
https://www.worldairports.se/pages/airport.php?
ICAO=KBQK

Runways:

(A) RW 07 length 8001 ft width 150 ft
ILS 108.50 / hdg 69

(B) RW 25 length 8001 ft width 150 ft
---- / hdg 249

Location; KBQK
Day. 19 / Time. 02.35 Zulu
* Altimeter: 30.17
* Temperature: 18° c. 64.4°f.
* Wind from: 190° Speed 10 kn.
Dewpoint: 15° c.
Visibility: 10 Statute Miles.
Clouds: Scattered 11000 ft.

KBQK 190235Z AUTO 19010KT 10SM SCT110 18/15 A3017 RMK AO2 T01810145


Wind From 190°
Speed 10 kn.

 
 
jpsmedia worldairports.se 2020   terms of use